Dalton, Georgia
Current Conditions -  °F | °C
As of 1:55 PM on Thursday 23 Oct 2014 (Local Time) from KDNN Reporting Station
Clear Clear  
Wind Chill: 63°   Ceiling: Unl
Heat Index: 63°   Visibility: 10mi
Dew Point: 45°   Wind: 12mph
Humidity: 52%   Direction: 350°N
Pressure: 30.11"   Gusts: NA
Location:  34.76°N, 84.97°W
Report Text: KDNN 231755Z AUTO 35010KT 10SM CLR 17/07 A3011 RMK AO2
Loading
Personal Weather Stations






























Interactive Weather Map New forecast layout! Learn more

10-Day Weather Forecast

Advertisements
Track Severe Weather on mobile